Portada
METAR-TAF:

METAR-TAF

Aeroports :

Midway, Estats Units d'Amèrica

latitud: 28-13N, longitud: 177-22W, altitud: 4 m

METAR: manca

Hora: 08:23 (18:23 UTC)

Pronòstic

L'informe es va fer fa 52 minuts, a les 17:31 UTC
Pronòstic vàlid del 25 a les 18 UTC al 26 a les 18 UTC
Vent 14 kt del Nord-Est
Visibilitat: 10 km
Núvols disperses a una alçada de 2000 ft
Cel ennuvolat a una alçada de 3500 ft
xàfecs en les proximitats,

TAF: PMDY 251731Z 2518/2618 05014KT P6SM VCSH SCT020 BKN035 AMD NOT SKED

Observacions i pronòstics meteorològics de més de 4000 aeroports (METAR i TAF).

Les estacions disponibles són els punts grocs i vermells al mapa.

Posi el ratolí al punt desitjat per veure el nom de l'estació.

Feu clic per veure les observacions i els pronòstics meteorològics.

Per canviar el mapa: feu clic els botons verds amb una creu de color negre per apropar; al botó verd amb un guió per allunyar la imatge; o en les fletxes verdes per a mapes adjacents.


METAR-TAF: